Mendocino, CA

10:06 AM PDT on March 28, 2015 (GMT -0700)
KCAMENDO1 | | Change Station
CLOSE
Current Station
Personal Weather Station
Location: Mendocino, CA
Elevation: 141 ft
Nearby Weather Stations

Elev 141 ft 39.31 °N, 123.80 °W | Updated 4 seconds ago

Clear
Clear
54.9 °F
Feels Like 54.9 °F
N
4.0
Wind Variable Wind from North
Gusts 7.0 mph

Today
High -- | Low -- °F
--% Chance of Precip.
Yesterday
High -- | Low -- °F
Precip. -- in
7:06 AM 7:34 PM
Waxing Gibbous, 64% visible
Pressure 30.24 in
Visibility 10.0 miles
Clouds Clear
Dew Point 44 °F
Humidity 67%
Rainfall 0.00 in
Snow Depth Not available.
UV 3 out of 12
Pollen 8.90 out of 12
Air Quality Not available.
Flu Activity Not available.
METAR KUKI 281656Z AUTO 00000KT 10SM CLR 14/07 A3025 RMK AO2 SLP240 T01390067

More Conditions Fewer Conditions

Pressure 30.24 in
Visibility 10.0 miles
Clouds Clear
Dew Point 44 °F
Humidity 67%
Rainfall 0.00 in
Snow Depth Not available.
UV 3 out of 12
Pollen 8.90 out of 12
Air Quality Not available.
Flu Activity Not available.
METAR KUKI 281656Z AUTO 00000KT 10SM CLR 14/07 A3025 RMK AO2 SLP240 T01390067

More Conditions Fewer Conditions

10-Day Weather Forecast

Almanac

Astronomy

Mar. 28, 2015 Rise Set
Actual Time
Civil Twilight
Nautical Twilight
Astronomical Twilight
Moon
Length of Visible Light
Length of Day
Tomorrow will be .
, % of the Moon is Illuminated

Today's Extremes

State Highs State Lows

Community

WunderPhotos

Upload Photos

1,809,029 photos uploaded!

WunderBlogs® & News

Nearby

Air Quality

  Air Quality AQ Index Pollutant
Not available.

Snow Depth

Station Depth Elevation

Earthquake Activity

City Distance Mag. Time & Date
Minimum magnitude displayed is 2.5.

Coastal Water Temperatures

Place Temperature

Stations

Nearby Weather Stations

Station Location Temp. Windchill Dew Point Humidity Wind Precip. Elev Updated Type